createdAt,value
2018-09-21T00:02:26.063Z,20.90
2018-09-21T00:04:54.556Z,20.90
2018-09-21T00:07:23.057Z,20.90
2018-09-21T00:09:51.804Z,20.90
2018-09-21T00:12:20.623Z,20.80
2018-09-21T00:14:49.445Z,20.80
2018-09-21T00:17:18.327Z,20.70
2018-09-21T00:19:46.812Z,20.70
2018-09-21T00:22:15.652Z,20.70
2018-09-21T00:24:44.156Z,20.60
2018-09-21T00:27:12.636Z,20.60
2018-09-21T00:29:41.159Z,20.50
2018-09-21T00:32:09.637Z,20.50
2018-09-21T00:34:38.188Z,20.50
2018-09-21T00:37:07.049Z,20.50
2018-09-21T00:39:36.441Z,20.40
2018-09-21T00:42:04.919Z,20.40
2018-09-21T00:44:34.076Z,20.40
2018-09-21T00:47:02.578Z,20.40
2018-09-21T00:49:31.375Z,20.30
2018-09-21T00:54:53.238Z,20.20
2018-09-21T00:57:21.717Z,20.10
2018-09-21T00:59:50.214Z,20.10
2018-09-21T01:02:19.064Z,20.00
2018-09-21T01:04:47.582Z,20.10
2018-09-21T01:07:16.444Z,20.10
2018-09-21T01:09:45.057Z,20.00
2018-09-21T01:12:13.539Z,19.90
2018-09-21T01:14:42.026Z,19.90
2018-09-21T01:17:10.512Z,19.90
2018-09-21T01:19:39.005Z,19.90
2018-09-21T01:22:07.892Z,19.80
2018-09-21T01:24:36.388Z,19.70
2018-09-21T01:27:05.901Z,19.70
2018-09-21T01:29:34.412Z,19.70
2018-09-21T01:32:02.884Z,19.70
2018-09-21T01:34:31.376Z,19.60
2018-09-21T01:37:00.206Z,19.60
2018-09-21T01:39:28.720Z,19.60
2018-09-21T01:41:57.224Z,19.50
2018-09-21T01:44:25.704Z,19.50
2018-09-21T01:46:54.213Z,19.50
2018-09-21T01:49:22.719Z,19.50
2018-09-21T01:51:51.473Z,19.50
2018-09-21T01:54:20.015Z,19.50
2018-09-21T01:56:48.855Z,19.50
2018-09-21T01:59:17.342Z,19.40
2018-09-21T02:01:45.860Z,19.40
2018-09-21T02:04:14.346Z,19.40
2018-09-21T02:06:43.173Z,19.30
2018-09-21T02:09:11.710Z,19.30
2018-09-21T02:11:40.211Z,19.30
2018-09-21T02:14:08.692Z,19.30
2018-09-21T02:16:37.825Z,19.20
2018-09-21T02:19:07.008Z,19.20
2018-09-21T02:21:35.518Z,19.20
2018-09-21T02:24:04.389Z,19.20
2018-09-21T02:26:33.196Z,19.20
2018-09-21T02:29:02.369Z,19.20
2018-09-21T02:31:31.381Z,19.20
2018-09-21T02:34:00.215Z,19.10
2018-09-21T02:36:28.713Z,19.10
2018-09-21T02:38:57.272Z,19.10
2018-09-21T02:41:26.133Z,19.10
2018-09-21T02:43:54.802Z,19.10
2018-09-21T02:46:23.645Z,19.00
2018-09-21T02:48:52.207Z,19.00
2018-09-21T02:51:20.832Z,19.00
2018-09-21T02:53:49.565Z,19.00
2018-09-21T02:56:18.335Z,19.00
2018-09-21T02:58:46.844Z,18.90
2018-09-21T03:01:15.336Z,18.90
2018-09-21T03:03:43.841Z,18.90
2018-09-21T03:06:13.025Z,18.90
2018-09-21T03:08:41.527Z,18.90
2018-09-21T03:11:10.010Z,18.90
2018-09-21T03:13:38.494Z,18.90
2018-09-21T03:16:06.988Z,18.90
2018-09-21T03:18:35.461Z,18.90
2018-09-21T03:21:04.270Z,18.90
2018-09-21T03:23:32.766Z,18.90
2018-09-21T03:26:01.594Z,19.00
2018-09-21T03:28:30.130Z,19.00
2018-09-21T03:30:58.621Z,19.00
2018-09-21T03:33:27.112Z,19.00
2018-09-21T03:35:55.938Z,19.00
2018-09-21T03:38:24.449Z,18.90
2018-09-21T03:40:53.281Z,18.90
2018-09-21T03:43:21.763Z,18.90
2018-09-21T03:45:50.595Z,18.90
2018-09-21T03:48:19.409Z,18.90
2018-09-21T03:50:47.892Z,18.90
2018-09-21T03:53:16.705Z,18.90
2018-09-21T03:55:45.522Z,18.90
2018-09-21T03:58:14.693Z,18.90
2018-09-21T04:00:43.182Z,18.90
2018-09-21T04:03:11.665Z,18.90
2018-09-21T04:05:40.183Z,18.90
2018-09-21T04:08:09.011Z,18.90
2018-09-21T04:10:37.520Z,18.90
2018-09-21T04:13:06.333Z,18.90
2018-09-21T04:15:34.836Z,18.90
2018-09-21T04:18:03.654Z,18.90
2018-09-21T04:20:32.498Z,18.80
2018-09-21T04:23:03.024Z,18.80
2018-09-21T04:25:32.694Z,18.80
2018-09-21T04:28:01.497Z,18.80
2018-09-21T04:30:31.456Z,18.80
2018-09-21T04:32:59.933Z,18.80
2018-09-21T04:35:28.439Z,18.80
2018-09-21T04:37:56.922Z,18.80
2018-09-21T04:40:25.737Z,18.80
2018-09-21T04:42:54.243Z,18.80
2018-09-21T04:45:23.376Z,18.80
2018-09-21T04:47:51.861Z,18.80
2018-09-21T04:50:20.649Z,18.70
2018-09-21T04:52:49.497Z,18.70
2018-09-21T04:55:18.673Z,18.80
2018-09-21T04:57:47.169Z,18.80
2018-09-21T05:00:15.656Z,18.80
2018-09-21T05:02:44.206Z,18.80
2018-09-21T05:05:13.529Z,18.90
2018-09-21T05:07:42.116Z,18.90
2018-09-21T05:10:10.936Z,18.90
2018-09-21T05:12:39.780Z,18.90
2018-09-21T05:15:08.626Z,18.90
2018-09-21T05:17:37.155Z,19.00
2018-09-21T05:20:10.234Z,19.00
2018-09-21T05:22:39.073Z,19.00
2018-09-21T05:25:08.445Z,19.10
2018-09-21T05:27:36.989Z,19.10
2018-09-21T05:30:05.713Z,19.10
2018-09-21T05:32:34.241Z,19.10
2018-09-21T05:35:02.931Z,19.20
2018-09-21T05:37:32.969Z,19.20
2018-09-21T05:40:11.817Z,19.30
2018-09-21T07:14:46.893Z,22.40
2018-09-21T07:24:39.245Z,22.60
2018-09-21T07:30:40.504Z,23.10
2018-09-21T07:33:43.682Z,23.20
2018-09-21T07:36:34.341Z,23.30
2018-09-21T09:48:11.561Z,26.30
2018-09-21T09:50:40.388Z,30.40
2018-09-21T09:53:09.877Z,30.40
2018-09-21T09:55:38.817Z,30.60
2018-09-21T09:58:07.062Z,30.90
2018-09-21T10:00:35.682Z,31.10
2018-09-21T10:03:04.074Z,31.30
2018-09-21T10:05:32.370Z,31.50
2018-09-21T10:08:00.627Z,31.60
2018-09-21T10:10:28.864Z,31.70
2018-09-21T10:12:57.314Z,31.80
2018-09-21T10:15:25.554Z,31.90
2018-09-21T10:17:54.107Z,31.90
2018-09-21T10:20:22.758Z,31.90
2018-09-21T10:22:51.008Z,31.90
2018-09-21T10:25:19.279Z,32.10
2018-09-21T10:27:47.808Z,32.30
2018-09-21T10:30:16.473Z,32.20
2018-09-21T10:32:44.759Z,32.30
2018-09-21T10:35:13.051Z,32.40
2018-09-21T10:37:41.310Z,32.60
2018-09-21T10:40:10.349Z,32.80
2018-09-21T10:42:40.103Z,32.90
2018-09-21T10:45:08.746Z,33.00
2018-09-21T10:47:37.108Z,33.10
2018-09-21T10:50:05.783Z,33.20
2018-09-21T10:52:34.100Z,33.40
2018-09-21T10:55:02.913Z,33.40
2018-09-21T10:57:31.627Z,33.40
2018-09-21T10:59:59.940Z,33.30
2018-09-21T11:02:28.574Z,33.10
2018-09-21T11:04:57.187Z,32.90
2018-09-21T11:07:26.157Z,32.80
2018-09-21T11:09:54.828Z,32.70
2018-09-21T11:12:23.085Z,32.60
2018-09-21T11:14:51.678Z,32.40
2018-09-21T11:17:21.288Z,32.20
2018-09-21T11:19:51.215Z,32.20
2018-09-21T11:22:19.889Z,31.80
2018-09-21T11:24:48.230Z,31.70
2018-09-21T11:27:16.556Z,31.70
2018-09-21T11:29:45.152Z,31.70
2018-09-21T11:32:13.403Z,31.70
2018-09-21T11:34:41.646Z,31.70
2018-09-21T11:37:10.241Z,31.70
2018-09-21T11:39:38.508Z,31.50
2018-09-21T11:42:07.193Z,31.50
2018-09-21T11:44:35.488Z,31.60
2018-09-21T11:47:04.155Z,31.90
2018-09-21T11:49:32.921Z,32.10
2018-09-21T11:52:01.529Z,32.20
2018-09-21T11:54:29.815Z,32.30
2018-09-21T11:56:59.065Z,32.50
2018-09-21T11:59:27.741Z,32.50
2018-09-21T12:01:56.379Z,32.30
2018-09-21T12:04:24.797Z,32.30
2018-09-21T12:06:53.777Z,32.30
2018-09-21T12:09:22.403Z,32.60
2018-09-21T12:11:51.085Z,32.70
2018-09-21T12:14:19.682Z,33.00
2018-09-21T12:16:48.034Z,33.10
2018-09-21T12:19:16.573Z,32.90
2018-09-21T12:21:44.828Z,32.80
2018-09-21T12:24:13.918Z,32.80
2018-09-21T12:26:42.776Z,32.90
2018-09-21T12:29:11.021Z,33.10
2018-09-21T12:31:39.712Z,33.30
2018-09-21T12:34:07.946Z,33.50
2018-09-21T12:36:36.224Z,33.40
2018-09-21T12:39:08.495Z,33.10
2018-09-21T12:41:36.778Z,33.00
2018-09-21T12:44:06.405Z,32.90
2018-09-21T12:46:34.685Z,32.90
2018-09-21T12:49:04.221Z,33.10
2018-09-21T12:51:33.505Z,33.20
2018-09-21T12:54:02.108Z,33.40
2018-09-21T12:56:30.761Z,33.30
2018-09-21T12:58:59.555Z,33.10
2018-09-21T13:01:27.913Z,33.10
2018-09-21T13:03:56.183Z,33.10
2018-09-21T13:06:24.577Z,33.40
2018-09-21T13:08:53.323Z,33.40
2018-09-21T13:11:21.611Z,33.30
2018-09-21T13:13:50.198Z,33.20
2018-09-21T13:16:18.787Z,32.70
2018-09-21T13:18:47.044Z,32.70
2018-09-21T13:21:15.956Z,32.50
2018-09-21T13:23:44.540Z,32.40
2018-09-21T13:26:13.144Z,32.50
2018-09-21T13:28:41.399Z,32.70
2018-09-21T13:31:09.981Z,33.00
2018-09-21T13:33:38.228Z,33.30
2018-09-21T13:36:07.779Z,33.50
2018-09-21T13:38:36.959Z,33.10
2018-09-21T13:41:06.033Z,32.90
2018-09-21T13:43:34.313Z,32.80
2018-09-21T13:46:02.908Z,32.70
2018-09-21T13:48:31.170Z,32.60
2018-09-21T13:50:59.422Z,32.50
2018-09-21T13:53:28.026Z,32.50
2018-09-21T13:55:56.668Z,32.20
2018-09-21T13:58:25.275Z,32.10
2018-09-21T14:00:53.545Z,32.00
2018-09-21T14:03:21.788Z,31.90
2018-09-21T14:05:50.381Z,31.90
2018-09-21T14:08:18.690Z,31.70
2018-09-21T14:10:46.966Z,31.60
2018-09-21T14:13:15.239Z,31.40
2018-09-21T14:15:43.517Z,31.20
2018-09-21T14:18:11.812Z,31.10
2018-09-21T14:20:40.457Z,31.20
2018-09-21T14:23:09.030Z,31.10
2018-09-21T14:25:37.320Z,31.10
2018-09-21T14:28:05.949Z,31.00
2018-09-21T14:30:34.215Z,31.00
2018-09-21T14:33:02.474Z,31.00
2018-09-21T14:35:31.083Z,31.00
2018-09-21T14:37:59.354Z,30.80
2018-09-21T14:40:28.623Z,30.80
2018-09-21T14:42:58.606Z,30.70
2018-09-21T14:45:27.446Z,30.60
2018-09-21T14:47:55.759Z,30.50
2018-09-21T14:50:24.549Z,30.60
2018-09-21T14:52:52.769Z,30.50
2018-09-21T14:55:22.693Z,30.40
2018-09-21T14:57:55.015Z,30.30
2018-09-21T15:00:23.615Z,30.30
2018-09-21T15:02:52.881Z,30.10
2018-09-21T15:05:21.815Z,30.00
2018-09-21T15:07:50.263Z,30.00
2018-09-21T15:10:18.556Z,29.90
2018-09-21T15:12:47.490Z,29.80
2018-09-21T15:15:15.795Z,29.70
2018-09-21T15:17:44.099Z,29.60
2018-09-21T15:20:12.840Z,29.50
2018-09-21T15:22:41.457Z,29.50
2018-09-21T15:25:09.807Z,29.50
2018-09-21T15:27:38.784Z,29.50
2018-09-21T15:30:07.070Z,29.40
2018-09-21T15:32:35.345Z,29.40
2018-09-21T15:35:03.674Z,29.30
2018-09-21T15:37:34.404Z,29.20
2018-09-21T15:40:02.701Z,29.10
2018-09-21T15:42:31.026Z,29.10
2018-09-21T15:44:59.629Z,29.10
2018-09-21T15:47:28.235Z,29.00
2018-09-21T15:49:56.536Z,28.50
2018-09-21T15:52:25.108Z,27.80
2018-09-21T15:57:55.746Z,27.00
2018-09-21T16:00:24.899Z,26.60
2018-09-21T16:03:11.109Z,26.00
2018-09-21T16:05:47.476Z,25.60
2018-09-21T16:08:19.704Z,25.20
2018-09-21T16:10:48.606Z,25.00
2018-09-21T16:13:16.899Z,24.80
2018-09-21T16:15:45.536Z,24.70
2018-09-21T16:18:24.610Z,24.60
2018-09-21T16:20:53.585Z,24.40
2018-09-21T16:23:29.118Z,24.30
2018-09-21T16:25:57.348Z,24.30
2018-09-21T16:28:26.467Z,24.20
2018-09-21T16:31:08.139Z,24.20
2018-09-21T16:33:37.112Z,24.20
2018-09-21T16:37:06.576Z,24.10
2018-09-21T16:42:49.360Z,24.30
2018-09-21T16:45:20.868Z,23.70
2018-09-21T16:53:17.858Z,22.90
2018-09-21T16:55:49.310Z,22.40
2018-09-21T16:58:18.182Z,21.70
2018-09-21T17:00:58.156Z,21.40
2018-09-21T17:03:27.369Z,21.20
2018-09-21T17:09:19.990Z,21.10
2018-09-21T17:11:48.935Z,20.80
2018-09-21T17:14:17.642Z,20.70
2018-09-21T17:16:46.146Z,20.60
2018-09-21T17:19:15.488Z,20.30
2018-09-21T17:21:44.679Z,20.20
2018-09-21T17:24:13.771Z,20.00
2018-09-21T17:26:42.500Z,19.70
2018-09-21T17:32:12.230Z,19.70
2018-09-21T17:34:44.434Z,19.30
2018-09-21T17:37:13.055Z,19.10
2018-09-21T17:39:42.354Z,18.90
2018-09-21T17:42:11.903Z,18.50
2018-09-21T17:44:40.482Z,18.60
2018-09-21T17:47:09.071Z,18.40
2018-09-21T17:49:38.090Z,18.30
2018-09-21T17:52:07.182Z,18.00
2018-09-21T17:54:36.779Z,18.20
2018-09-21T17:57:06.054Z,18.20
2018-09-21T17:59:37.105Z,18.20
2018-09-21T18:02:06.288Z,18.10
2018-09-21T18:04:34.958Z,18.00
2018-09-21T18:07:03.871Z,18.10
2018-09-21T18:09:33.393Z,18.10
2018-09-21T18:12:01.942Z,18.40
2018-09-21T18:14:31.439Z,18.20
2018-09-21T18:17:00.776Z,18.00
2018-09-21T18:25:18.005Z,17.90
2018-09-21T18:30:39.471Z,17.90
2018-09-21T18:33:15.353Z,17.80
2018-09-21T18:35:56.302Z,17.70
2018-09-21T18:38:52.289Z,17.80
2018-09-21T18:41:21.966Z,17.60
2018-09-21T18:43:53.253Z,17.50
2018-09-21T18:49:25.601Z,17.60
2018-09-21T18:51:59.700Z,17.40
2018-09-21T18:54:29.772Z,17.30
2018-09-21T18:56:58.674Z,17.20
2018-09-21T18:59:34.563Z,17.30
2018-09-21T19:02:03.412Z,17.20
2018-09-21T19:04:34.591Z,17.10
2018-09-21T19:07:07.602Z,17.00
2018-09-21T19:09:37.273Z,16.90
2018-09-21T19:12:06.136Z,16.80
2018-09-21T19:14:34.637Z,16.80
2018-09-21T19:17:05.357Z,16.80
2018-09-21T19:19:33.873Z,16.70
2018-09-21T19:22:03.040Z,16.60
2018-09-21T19:24:32.542Z,16.60
2018-09-21T19:27:01.119Z,16.70
2018-09-21T19:30:24.754Z,16.60
2018-09-21T19:33:58.181Z,16.60
2018-09-21T19:36:27.050Z,16.50
2018-09-21T19:38:56.208Z,16.40
2018-09-21T19:41:25.084Z,16.50
2018-09-21T19:44:06.939Z,16.60
2018-09-21T19:46:37.525Z,16.50
2018-09-21T19:49:06.614Z,16.40
2018-09-21T19:51:36.088Z,16.40
2018-09-21T19:54:08.636Z,16.40
2018-09-21T19:56:40.984Z,16.40
2018-09-21T19:59:10.369Z,16.30
2018-09-21T20:01:39.171Z,16.30
2018-09-21T20:04:23.206Z,16.20
2018-09-21T20:20:50.987Z,16.30
2018-09-21T20:23:19.846Z,16.30
2018-09-21T20:25:48.745Z,16.30
2018-09-21T20:28:17.253Z,16.30
2018-09-21T20:30:51.687Z,16.30
2018-09-21T20:33:25.809Z,16.30
2018-09-21T20:35:54.716Z,16.30
2018-09-21T20:38:24.065Z,16.30
2018-09-21T20:40:52.701Z,16.30
2018-09-21T20:43:21.589Z,16.20
2018-09-21T20:45:50.194Z,16.30
2018-09-21T20:48:18.698Z,16.20
2018-09-21T20:50:47.901Z,16.20
2018-09-21T20:53:16.703Z,16.10
2018-09-21T20:55:45.632Z,16.10
2018-09-21T20:58:14.481Z,16.40
2018-09-21T21:00:44.256Z,16.50
2018-09-21T21:04:37.358Z,16.70
2018-09-21T21:07:06.295Z,16.80
2018-09-21T21:09:34.854Z,16.80
2018-09-21T21:12:03.901Z,16.70
2018-09-21T21:14:32.464Z,16.70
2018-09-21T21:17:01.370Z,16.70
2018-09-21T21:19:30.205Z,16.60
2018-09-21T21:21:58.700Z,16.60
2018-09-21T21:24:27.536Z,16.80
2018-09-21T21:26:56.033Z,16.70
2018-09-21T21:29:24.956Z,16.60
2018-09-21T21:31:53.848Z,16.60
2018-09-21T21:34:22.687Z,16.60
2018-09-21T21:36:51.681Z,16.60
2018-09-21T21:39:20.220Z,16.50
2018-09-21T21:41:49.060Z,16.50
2018-09-21T21:44:17.551Z,16.50
2018-09-21T21:46:47.245Z,16.50
2018-09-21T21:49:15.744Z,16.40
2018-09-21T21:51:44.272Z,16.40
2018-09-21T21:54:13.125Z,16.50
2018-09-21T21:56:41.950Z,16.40
2018-09-21T21:59:11.063Z,16.30
2018-09-21T22:01:45.716Z,16.40
2018-09-21T22:04:15.261Z,16.50
2018-09-21T22:06:45.512Z,16.50
2018-09-21T22:09:16.449Z,16.40
2018-09-21T22:11:50.506Z,16.40
2018-09-21T22:14:19.464Z,16.30
2018-09-21T22:16:49.103Z,16.40
2018-09-21T22:19:18.215Z,16.30
2018-09-21T22:21:48.246Z,16.30
2018-09-21T22:24:16.948Z,16.40
2018-09-21T22:26:45.697Z,16.30
2018-09-21T22:29:14.371Z,16.30
2018-09-21T22:31:43.570Z,16.30
2018-09-21T22:34:12.453Z,16.10
2018-09-21T22:36:40.992Z,16.00
2018-09-21T22:39:09.916Z,16.00
2018-09-21T22:41:39.159Z,16.00
2018-09-21T22:44:08.104Z,16.00
2018-09-21T22:46:36.717Z,16.00
2018-09-21T22:49:08.706Z,15.80
2018-09-21T22:51:37.642Z,15.90
2018-09-21T22:54:06.697Z,15.90
2018-09-21T22:56:35.252Z,15.80
2018-09-21T22:59:04.146Z,15.90
2018-09-21T23:01:33.026Z,15.90
2018-09-21T23:04:02.042Z,15.90
2018-09-21T23:06:30.944Z,15.80
2018-09-21T23:08:59.570Z,15.80
2018-09-21T23:11:28.513Z,15.80
2018-09-21T23:13:57.116Z,15.70
2018-09-21T23:16:25.683Z,15.70
2018-09-21T23:18:54.297Z,15.60
2018-09-21T23:21:22.878Z,15.70
2018-09-21T23:23:51.522Z,15.60
2018-09-21T23:26:20.105Z,15.60
2018-09-21T23:28:49.024Z,15.50
2018-09-21T23:31:18.007Z,15.50
2018-09-21T23:33:46.581Z,15.50
2018-09-21T23:36:15.169Z,15.60
2018-09-21T23:38:44.063Z,15.50
2018-09-21T23:41:13.394Z,15.60
2018-09-21T23:43:42.089Z,15.50
2018-09-21T23:46:11.251Z,15.50
2018-09-21T23:48:40.459Z,15.40
2018-09-21T23:51:09.893Z,15.30
2018-09-21T23:53:38.929Z,15.30
2018-09-21T23:56:08.445Z,15.30
2018-09-21T23:58:37.187Z,15.40
